createdAt,value
2023-02-16T00:01:51.538Z,1.90
2023-02-16T00:04:29.930Z,3.50
2023-02-16T00:06:57.296Z,3.07
2023-02-16T00:09:24.762Z,1.50
2023-02-16T00:12:11.784Z,1.53
2023-02-16T00:14:39.739Z,2.90
2023-02-16T00:17:06.894Z,2.07
2023-02-16T00:19:38.604Z,1.60
2023-02-16T00:22:05.977Z,3.30
2023-02-16T00:24:32.756Z,0.60
2023-02-16T00:27:00.414Z,1.00
2023-02-16T00:29:33.381Z,0.70
2023-02-16T00:32:01.930Z,2.17
2023-02-16T00:34:28.281Z,1.93
2023-02-16T00:36:55.912Z,0.87
2023-02-16T00:39:25.003Z,2.40
2023-02-16T00:41:54.048Z,2.77
2023-02-16T00:44:42.286Z,2.53
2023-02-16T00:47:39.171Z,2.93
2023-02-16T00:50:27.421Z,2.13
2023-02-16T00:52:54.286Z,1.47
2023-02-16T00:55:23.669Z,1.80
2023-02-16T00:57:54.734Z,3.33
2023-02-16T01:00:24.022Z,3.03
2023-02-16T01:02:53.210Z,3.47
2023-02-16T01:05:19.772Z,1.03
2023-02-16T01:08:05.854Z,2.10
2023-02-16T01:11:11.065Z,2.27
2023-02-16T01:13:47.278Z,2.13
2023-02-16T01:16:20.550Z,3.50
2023-02-16T01:18:48.002Z,3.50
2023-02-16T01:21:14.420Z,2.00
2023-02-16T01:23:41.256Z,2.27
2023-02-16T01:26:16.767Z,2.10
2023-02-16T01:28:43.818Z,1.80
2023-02-16T01:31:11.691Z,1.27
2023-02-16T01:33:38.508Z,2.03
2023-02-16T01:36:06.238Z,2.23
2023-02-16T01:38:32.593Z,2.23
2023-02-16T01:41:37.854Z,0.90
2023-02-16T01:44:17.896Z,2.50
2023-02-16T01:46:52.858Z,3.37
2023-02-16T01:49:21.122Z,2.90
2023-02-16T01:51:56.270Z,1.10
2023-02-16T01:54:32.196Z,1.37
2023-02-16T01:57:30.900Z,2.73
2023-02-16T01:59:57.210Z,0.90
2023-02-16T02:02:35.504Z,1.83
2023-02-16T02:05:35.272Z,1.87
2023-02-16T02:08:17.000Z,1.00
2023-02-16T02:10:52.313Z,2.63
2023-02-16T02:13:29.518Z,2.73
2023-02-16T02:15:59.240Z,1.40
2023-02-16T02:18:25.969Z,1.93
2023-02-16T02:21:27.354Z,2.40
2023-02-16T02:24:40.662Z,2.10
2023-02-16T02:27:16.322Z,3.10
2023-02-16T02:29:51.640Z,2.10
2023-02-16T02:33:02.958Z,2.70
2023-02-16T02:35:42.259Z,1.77
2023-02-16T02:38:30.994Z,2.17
2023-02-16T02:41:06.266Z,1.53
2023-02-16T02:43:41.038Z,2.43
2023-02-16T02:46:30.095Z,1.00
2023-02-16T02:48:56.455Z,0.93
2023-02-16T02:51:28.531Z,2.17
2023-02-16T02:54:18.528Z,3.33
2023-02-16T02:57:14.446Z,2.63
2023-02-16T03:00:03.712Z,1.80
2023-02-16T03:02:33.301Z,1.60
2023-02-16T03:05:00.851Z,4.50
2023-02-16T03:07:46.572Z,1.60
2023-02-16T03:10:44.878Z,2.77
2023-02-16T03:13:20.840Z,2.13
2023-02-16T03:15:48.643Z,1.80
2023-02-16T03:18:35.470Z,1.63
2023-02-16T03:21:22.849Z,1.20
2023-02-16T03:24:10.039Z,1.07
2023-02-16T03:26:56.849Z,3.80
2023-02-16T03:29:26.441Z,2.40
2023-02-16T03:31:55.266Z,2.00
2023-02-16T03:34:22.921Z,2.67
2023-02-16T03:36:58.379Z,2.50
2023-02-16T03:39:26.938Z,2.53
2023-02-16T03:41:55.470Z,0.57
2023-02-16T03:44:22.007Z,1.37
2023-02-16T03:46:51.690Z,2.30
2023-02-16T03:49:19.366Z,2.00
2023-02-16T03:51:46.475Z,2.60
2023-02-16T03:54:13.500Z,2.83
2023-02-16T03:56:39.890Z,1.53
2023-02-16T03:59:06.296Z,2.07
2023-02-16T04:01:32.783Z,1.47
2023-02-16T04:03:59.235Z,1.90
2023-02-16T04:06:26.419Z,1.00
2023-02-16T04:08:52.892Z,0.90
2023-02-16T04:11:37.842Z,0.30
2023-02-16T04:14:04.238Z,2.67
2023-02-16T04:16:30.624Z,1.20
2023-02-16T04:18:57.029Z,0.93
2023-02-16T04:21:23.433Z,3.77
2023-02-16T04:23:49.768Z,2.07
2023-02-16T04:26:16.112Z,1.80
2023-02-16T04:28:42.571Z,1.93
2023-02-16T04:31:09.070Z,2.17
2023-02-16T04:33:35.525Z,3.00
2023-02-16T04:36:02.046Z,2.60
2023-02-16T04:38:28.402Z,0.80
2023-02-16T04:40:54.775Z,3.57
2023-02-16T04:43:21.166Z,2.20
2023-02-16T04:45:47.529Z,1.13
2023-02-16T04:48:14.015Z,2.00
2023-02-16T04:50:40.434Z,1.07
2023-02-16T04:53:06.831Z,2.37
2023-02-16T04:55:33.296Z,1.80
2023-02-16T04:57:59.688Z,2.10
2023-02-16T05:00:26.381Z,1.80
2023-02-16T05:02:52.780Z,3.20
2023-02-16T05:05:19.318Z,2.93
2023-02-16T05:07:45.747Z,3.87
2023-02-16T05:10:12.195Z,2.37
2023-02-16T05:12:56.938Z,2.70
2023-02-16T05:15:23.332Z,1.50
2023-02-16T05:17:49.793Z,1.50
2023-02-16T05:20:16.240Z,2.00
2023-02-16T05:22:43.573Z,2.77
2023-02-16T05:25:09.983Z,2.27
2023-02-16T05:27:36.964Z,3.13
2023-02-16T05:30:03.890Z,2.90
2023-02-16T05:32:30.363Z,2.03
2023-02-16T05:34:56.697Z,2.13
2023-02-16T05:37:23.256Z,2.60
2023-02-16T05:39:49.635Z,0.93
2023-02-16T05:42:16.008Z,1.53
2023-02-16T05:44:42.358Z,0.63
2023-02-16T05:47:08.833Z,1.47
2023-02-16T05:49:35.294Z,1.63
2023-02-16T05:52:02.130Z,1.30
2023-02-16T05:54:28.595Z,1.57
2023-02-16T05:56:55.429Z,1.47
2023-02-16T05:59:21.844Z,3.30
2023-02-16T06:01:51.558Z,2.03
2023-02-16T06:04:19.669Z,1.17
2023-02-16T06:06:46.159Z,2.30
2023-02-16T06:09:12.609Z,2.03
2023-02-16T06:11:39.446Z,2.97
2023-02-16T06:14:11.792Z,1.80
2023-02-16T06:16:41.037Z,1.57
2023-02-16T06:19:08.233Z,1.43
2023-02-16T06:21:36.030Z,4.50
2023-02-16T06:24:02.708Z,1.93
2023-02-16T06:26:29.403Z,2.83
2023-02-16T06:28:55.857Z,2.27
2023-02-16T06:31:23.414Z,4.03
2023-02-16T06:33:49.875Z,4.63
2023-02-16T06:36:16.741Z,2.43
2023-02-16T06:38:43.510Z,2.23
2023-02-16T06:41:10.334Z,4.53
2023-02-16T06:43:36.918Z,2.27
2023-02-16T06:46:03.877Z,3.37
2023-02-16T06:48:30.404Z,4.87
2023-02-16T06:50:56.827Z,2.03
2023-02-16T06:53:23.306Z,4.00
2023-02-16T06:55:50.875Z,2.23
2023-02-16T06:58:17.410Z,3.43
2023-02-16T07:00:43.919Z,2.97
2023-02-16T07:03:10.398Z,2.97
2023-02-16T07:05:36.823Z,2.00
2023-02-16T07:08:03.300Z,2.40
2023-02-16T07:10:43.683Z,1.33
2023-02-16T07:13:15.401Z,2.50
2023-02-16T07:15:41.851Z,4.90
2023-02-16T07:18:08.222Z,4.40
2023-02-16T07:20:34.599Z,2.20
2023-02-16T07:23:00.982Z,2.30
2023-02-16T07:25:27.591Z,1.83
2023-02-16T07:27:54.689Z,2.40
2023-02-16T07:30:21.581Z,2.07
2023-02-16T07:32:48.064Z,2.50
2023-02-16T07:35:14.477Z,1.83
2023-02-16T07:37:40.925Z,2.67
2023-02-16T07:40:07.923Z,1.80
2023-02-16T07:42:34.464Z,3.70
2023-02-16T07:45:00.864Z,3.23
2023-02-16T07:47:27.282Z,1.50
2023-02-16T07:49:53.733Z,2.53
2023-02-16T07:52:20.128Z,0.93
2023-02-16T07:54:46.826Z,2.23
2023-02-16T07:57:13.255Z,1.90
2023-02-16T07:59:39.734Z,4.23
2023-02-16T08:02:06.482Z,1.83
2023-02-16T08:04:34.642Z,2.80
2023-02-16T08:07:02.243Z,2.10
2023-02-16T08:09:28.643Z,2.70
2023-02-16T08:11:55.027Z,5.37
2023-02-16T08:14:21.492Z,2.10
2023-02-16T08:16:50.364Z,1.43
2023-02-16T08:19:18.832Z,1.60
2023-02-16T08:21:49.293Z,2.30
2023-02-16T08:24:15.635Z,1.87
2023-02-16T08:26:43.188Z,1.60
2023-02-16T08:29:10.195Z,1.27
2023-02-16T08:31:38.287Z,4.10
2023-02-16T08:34:06.223Z,3.20
2023-02-16T08:36:35.197Z,1.47
2023-02-16T08:39:04.724Z,1.13
2023-02-16T08:41:34.060Z,1.80
2023-02-16T08:44:01.060Z,2.30
2023-02-16T08:46:29.234Z,2.47
2023-02-16T08:49:00.251Z,0.90
2023-02-16T08:51:28.920Z,2.20
2023-02-16T08:53:56.855Z,0.70
2023-02-16T08:56:23.866Z,2.00
2023-02-16T08:58:50.368Z,2.70
2023-02-16T09:01:16.779Z,4.33
2023-02-16T09:03:46.020Z,2.20
2023-02-16T09:06:14.975Z,1.63
2023-02-16T09:08:42.298Z,3.03
2023-02-16T09:11:12.444Z,2.30
2023-02-16T09:13:40.942Z,1.20
2023-02-16T09:16:10.056Z,2.30
2023-02-16T09:18:37.125Z,2.77
2023-02-16T09:21:06.818Z,1.60
2023-02-16T09:23:35.544Z,3.23
2023-02-16T09:26:02.831Z,1.90
2023-02-16T09:28:30.725Z,2.27
2023-02-16T09:30:57.234Z,2.37
2023-02-16T09:33:23.647Z,2.13
2023-02-16T09:35:50.134Z,2.20
2023-02-16T09:38:19.177Z,4.00
2023-02-16T09:40:45.672Z,3.03
2023-02-16T09:43:35.540Z,2.70
2023-02-16T09:46:03.358Z,1.87
2023-02-16T09:48:42.888Z,1.90
2023-02-16T09:51:15.757Z,1.37
2023-02-16T09:53:43.950Z,2.73
2023-02-16T09:56:20.040Z,2.00
2023-02-16T09:58:56.264Z,1.90
2023-02-16T10:01:40.075Z,3.50
2023-02-16T10:04:40.210Z,2.20
2023-02-16T10:07:31.717Z,0.57
2023-02-16T10:10:00.983Z,3.57
2023-02-16T10:12:33.374Z,2.27
2023-02-16T10:15:09.315Z,2.90
2023-02-16T10:17:35.681Z,2.90
2023-02-16T10:20:12.075Z,3.63
2023-02-16T10:23:02.671Z,4.13
2023-02-16T10:25:44.159Z,2.10
2023-02-16T10:28:22.803Z,2.67
2023-02-16T10:31:06.158Z,2.80
2023-02-16T10:33:53.349Z,1.53
2023-02-16T10:36:34.954Z,2.60
2023-02-16T10:39:46.339Z,2.93
2023-02-16T10:42:36.918Z,2.83
2023-02-16T10:45:28.484Z,4.07
2023-02-16T10:47:55.122Z,2.60
2023-02-16T10:50:33.145Z,3.83
2023-02-16T10:53:10.218Z,3.37
2023-02-16T10:55:38.684Z,2.07
2023-02-16T10:58:13.918Z,3.10
2023-02-16T11:01:18.667Z,1.90
2023-02-16T11:03:49.877Z,2.73
2023-02-16T11:06:22.987Z,2.00
2023-02-16T11:08:55.008Z,3.37
2023-02-16T11:11:23.030Z,3.20
2023-02-16T11:13:57.288Z,4.37
2023-02-16T11:16:24.510Z,4.53
2023-02-16T11:19:01.355Z,3.57
2023-02-16T11:21:44.586Z,2.60
2023-02-16T11:24:23.854Z,5.97
2023-02-16T11:27:03.917Z,3.50
2023-02-16T11:29:31.431Z,3.33
2023-02-16T11:31:59.394Z,5.17
2023-02-16T11:34:32.479Z,3.23
2023-02-16T11:37:25.317Z,5.27
2023-02-16T11:39:55.309Z,3.30
2023-02-16T11:42:40.400Z,2.50
2023-02-16T11:45:08.908Z,4.10
2023-02-16T11:47:39.629Z,2.53
2023-02-16T11:50:20.842Z,4.87
2023-02-16T11:52:49.808Z,3.67
2023-02-16T11:55:34.174Z,3.33
2023-02-16T11:58:21.444Z,3.17
2023-02-16T12:01:16.552Z,2.70
2023-02-16T12:03:57.038Z,2.30
2023-02-16T12:06:51.409Z,1.90
2023-02-16T12:09:36.754Z,4.20
2023-02-16T12:12:16.163Z,4.20
2023-02-16T12:14:57.622Z,3.27
2023-02-16T12:17:24.014Z,4.53
2023-02-16T12:20:19.581Z,3.97
2023-02-16T12:22:55.351Z,4.07
2023-02-16T12:25:31.536Z,4.90
2023-02-16T12:28:13.461Z,3.13
2023-02-16T12:31:07.196Z,3.27
2023-02-16T12:33:49.451Z,2.90
2023-02-16T12:36:45.861Z,3.33
2023-02-16T12:39:21.975Z,3.77
2023-02-16T12:42:17.399Z,4.03
2023-02-16T12:44:49.439Z,4.33
2023-02-16T12:47:43.812Z,3.63
2023-02-16T12:50:31.159Z,5.40
2023-02-16T12:53:20.129Z,3.83
2023-02-16T12:55:55.226Z,5.13
2023-02-16T12:58:28.564Z,5.37
2023-02-16T13:01:04.045Z,3.17
2023-02-16T13:03:50.099Z,4.63
2023-02-16T13:06:29.948Z,3.40
2023-02-16T13:09:11.442Z,4.10
2023-02-16T13:11:52.430Z,4.77
2023-02-16T13:14:23.308Z,2.80
2023-02-16T13:16:58.664Z,3.80
2023-02-16T13:19:25.304Z,3.43
2023-02-16T13:22:10.514Z,6.40
2023-02-16T13:25:06.879Z,4.37
2023-02-16T13:27:51.484Z,5.53
2023-02-16T13:30:42.487Z,4.83
2023-02-16T13:33:37.576Z,3.47
2023-02-16T13:36:18.969Z,5.23
2023-02-16T13:38:48.318Z,5.50
2023-02-16T13:41:27.732Z,3.00
2023-02-16T13:44:02.196Z,6.03
2023-02-16T13:46:38.036Z,4.03
2023-02-16T13:49:04.956Z,6.53
2023-02-16T13:51:46.131Z,4.73
2023-02-16T13:54:31.755Z,6.10
2023-02-16T13:56:58.361Z,4.33
2023-02-16T13:59:24.646Z,2.80
2023-02-16T14:01:54.204Z,3.97
2023-02-16T14:04:23.666Z,7.17
2023-02-16T14:07:06.924Z,5.70
2023-02-16T14:09:46.404Z,3.37
2023-02-16T14:12:22.803Z,3.80
2023-02-16T14:14:52.776Z,3.23
2023-02-16T14:17:19.142Z,5.40
2023-02-16T14:20:02.245Z,5.00
2023-02-16T14:22:51.185Z,3.80
2023-02-16T14:25:22.077Z,4.57
2023-02-16T14:27:58.701Z,6.63
2023-02-16T14:30:36.114Z,5.37
2023-02-16T14:33:16.524Z,6.40
2023-02-16T14:36:03.448Z,5.30
2023-02-16T14:38:43.775Z,5.00
2023-02-16T14:41:26.748Z,6.00
2023-02-16T14:44:31.396Z,4.10
2023-02-16T14:47:22.512Z,4.63
2023-02-16T14:50:11.727Z,5.80
2023-02-16T14:53:06.063Z,3.20
2023-02-16T14:56:06.667Z,4.00
2023-02-16T14:58:42.259Z,3.80
2023-02-16T15:01:17.685Z,5.53
2023-02-16T15:03:50.424Z,5.20
2023-02-16T15:06:22.947Z,5.37
2023-02-16T15:08:57.726Z,6.30
2023-02-16T15:11:34.486Z,5.77
2023-02-16T15:14:11.498Z,4.57
2023-02-16T15:16:40.513Z,5.10
2023-02-16T15:19:17.086Z,4.37
2023-02-16T15:22:03.887Z,8.00
2023-02-16T15:24:31.192Z,5.60
2023-02-16T15:27:01.547Z,5.10
2023-02-16T15:29:29.503Z,5.30
2023-02-16T15:31:59.584Z,7.13
2023-02-16T15:36:53.852Z,6.17
2023-02-16T15:39:45.187Z,5.30
2023-02-16T15:42:14.919Z,5.80
2023-02-16T15:44:43.535Z,5.13
2023-02-16T15:47:15.970Z,4.63
2023-02-16T15:49:42.494Z,4.50
2023-02-16T15:52:16.105Z,5.93
2023-02-16T15:54:44.881Z,5.30
2023-02-16T15:57:40.624Z,4.17
2023-02-16T16:00:19.257Z,4.77
2023-02-16T16:02:48.446Z,3.83
2023-02-16T16:05:25.353Z,4.73
2023-02-16T16:07:53.367Z,5.30
2023-02-16T16:10:24.879Z,4.60
2023-02-16T16:12:54.346Z,4.80
2023-02-16T16:15:23.592Z,4.23
2023-02-16T16:17:52.635Z,5.93
2023-02-16T16:20:22.058Z,4.60
2023-02-16T16:22:56.695Z,5.30
2023-02-16T16:25:43.235Z,3.07
2023-02-16T16:28:14.767Z,2.93
2023-02-16T16:30:43.893Z,6.10
2023-02-16T16:33:16.100Z,4.23
2023-02-16T16:35:49.620Z,6.37
2023-02-16T16:38:28.593Z,6.60
2023-02-16T16:40:58.322Z,5.33
2023-02-16T16:43:29.603Z,6.80
2023-02-16T16:46:12.290Z,5.37
2023-02-16T16:48:47.463Z,6.00
2023-02-16T16:51:18.459Z,4.60
2023-02-16T16:54:00.545Z,5.97
2023-02-16T16:56:28.819Z,6.03
2023-02-16T16:58:57.309Z,4.97
2023-02-16T17:01:25.610Z,5.03
2023-02-16T17:03:52.258Z,2.47
2023-02-16T17:06:20.124Z,5.10
2023-02-16T17:08:46.728Z,5.43
2023-02-16T17:11:26.834Z,2.73
2023-02-16T17:13:54.777Z,5.20
2023-02-16T17:16:36.279Z,4.57
2023-02-16T17:19:03.561Z,4.07
2023-02-16T17:21:30.139Z,3.50
2023-02-16T17:23:56.596Z,6.97
2023-02-16T17:26:23.068Z,5.80
2023-02-16T17:28:50.141Z,5.83
2023-02-16T17:31:16.786Z,5.67
2023-02-16T17:33:43.236Z,7.50
2023-02-16T17:36:14.071Z,4.27
2023-02-16T17:38:40.558Z,5.67
2023-02-16T17:41:07.344Z,4.30
2023-02-16T17:43:33.755Z,4.53
2023-02-16T17:46:04.605Z,4.27
2023-02-16T17:48:31.250Z,7.87
2023-02-16T17:50:58.528Z,4.60
2023-02-16T17:53:27.102Z,5.53
2023-02-16T17:55:55.918Z,4.53
2023-02-16T17:58:24.009Z,5.07
2023-02-16T18:00:51.139Z,5.10
2023-02-16T18:03:18.042Z,4.53
2023-02-16T18:05:44.948Z,7.30
2023-02-16T18:08:12.737Z,4.13
2023-02-16T18:10:45.759Z,4.20
2023-02-16T18:13:13.402Z,5.70
2023-02-16T18:15:42.470Z,4.47
2023-02-16T18:18:09.060Z,3.83
2023-02-16T18:20:35.644Z,4.90
2023-02-16T18:23:02.100Z,4.57
2023-02-16T18:25:28.621Z,4.40
2023-02-16T18:27:55.111Z,3.83
2023-02-16T18:30:21.777Z,5.70
2023-02-16T18:32:48.315Z,4.97
2023-02-16T18:35:15.606Z,3.20
2023-02-16T18:37:42.062Z,5.60
2023-02-16T18:40:11.400Z,3.73
2023-02-16T18:42:38.327Z,4.70
2023-02-16T18:45:05.801Z,4.63
2023-02-16T18:47:32.364Z,2.70
2023-02-16T18:49:58.775Z,6.40
2023-02-16T18:52:25.428Z,3.10
2023-02-16T18:54:51.899Z,4.07
2023-02-16T18:57:18.408Z,3.63
2023-02-16T18:59:44.780Z,5.60
2023-02-16T19:02:12.143Z,3.60
2023-02-16T19:04:38.923Z,3.97
2023-02-16T19:07:05.451Z,2.63
2023-02-16T19:09:31.856Z,2.70
2023-02-16T19:11:58.270Z,2.37
2023-02-16T19:14:24.695Z,4.47
2023-02-16T19:16:51.085Z,3.40
2023-02-16T19:19:17.606Z,3.63
2023-02-16T19:21:44.331Z,4.07
2023-02-16T19:24:11.959Z,5.03
2023-02-16T19:26:39.564Z,2.77
2023-02-16T19:29:06.325Z,4.43
2023-02-16T19:31:33.531Z,3.53
2023-02-16T19:34:00.117Z,2.60
2023-02-16T19:36:29.954Z,5.47
2023-02-16T19:38:56.447Z,3.97
2023-02-16T19:41:26.635Z,3.17
2023-02-16T19:43:53.628Z,1.80
2023-02-16T19:46:20.328Z,4.40
2023-02-16T19:48:47.376Z,2.23
2023-02-16T19:51:14.398Z,4.40
2023-02-16T19:53:42.214Z,2.93
2023-02-16T19:56:12.740Z,5.53
2023-02-16T19:58:39.423Z,5.70
2023-02-16T20:01:07.991Z,4.53
2023-02-16T20:03:34.432Z,4.10
2023-02-16T20:06:00.887Z,3.43
2023-02-16T20:08:27.224Z,3.50
2023-02-16T20:10:53.759Z,2.93
2023-02-16T20:13:20.183Z,3.43
2023-02-16T20:15:46.556Z,3.50
2023-02-16T20:18:12.935Z,4.53
2023-02-16T20:20:39.332Z,4.10
2023-02-16T20:23:07.179Z,3.60
2023-02-16T20:25:33.597Z,3.73
2023-02-16T20:28:00.029Z,3.33
2023-02-16T20:30:27.405Z,4.23
2023-02-16T20:32:53.943Z,4.67
2023-02-16T20:35:20.320Z,2.60
2023-02-16T20:37:46.698Z,3.30
2023-02-16T20:40:13.667Z,4.70
2023-02-16T20:42:40.018Z,5.17
2023-02-16T20:45:06.779Z,3.80
2023-02-16T20:47:33.309Z,3.30
2023-02-16T20:49:59.714Z,5.10
2023-02-16T20:52:26.039Z,4.87
2023-02-16T20:54:52.440Z,3.27
2023-02-16T20:57:26.865Z,3.93
2023-02-16T20:59:55.041Z,4.07
2023-02-16T21:02:21.527Z,6.27
2023-02-16T21:04:48.052Z,5.63
2023-02-16T21:07:14.471Z,6.60
2023-02-16T21:09:41.304Z,4.90
2023-02-16T21:12:07.876Z,4.60
2023-02-16T21:14:34.436Z,6.30
2023-02-16T21:17:00.971Z,5.13
2023-02-16T21:19:27.430Z,6.87
2023-02-16T21:21:53.805Z,4.80
2023-02-16T21:24:20.422Z,5.07
2023-02-16T21:26:46.967Z,5.80
2023-02-16T21:29:13.450Z,6.70
2023-02-16T21:31:39.914Z,6.77
2023-02-16T21:34:06.306Z,6.97
2023-02-16T21:36:32.775Z,8.73
2023-02-16T21:39:01.878Z,6.87
2023-02-16T21:41:29.328Z,6.07
2023-02-16T21:44:03.114Z,5.57
2023-02-16T21:46:40.927Z,5.50
2023-02-16T21:49:11.989Z,6.33
2023-02-16T21:51:41.600Z,8.50
2023-02-16T21:54:09.983Z,7.43
2023-02-16T21:56:41.689Z,6.10
2023-02-16T21:59:14.393Z,7.53
2023-02-16T22:01:45.280Z,6.03
2023-02-16T22:04:14.116Z,4.20
2023-02-16T22:06:43.441Z,4.10
2023-02-16T22:09:21.787Z,5.60
2023-02-16T22:11:49.306Z,4.40
2023-02-16T22:14:15.923Z,5.53
2023-02-16T22:16:45.251Z,4.97
2023-02-16T22:19:14.152Z,8.00
2023-02-16T22:21:42.618Z,7.27
2023-02-16T22:24:11.977Z,5.10
2023-02-16T22:26:38.351Z,5.40
2023-02-16T22:29:06.533Z,7.63
2023-02-16T22:31:33.446Z,5.73
2023-02-16T22:34:06.409Z,8.73
2023-02-16T22:36:33.815Z,5.23
2023-02-16T22:39:00.328Z,5.27
2023-02-16T22:41:26.851Z,8.33
2023-02-16T22:43:59.143Z,8.80
2023-02-16T22:46:27.264Z,6.17
2023-02-16T22:48:53.885Z,5.50
2023-02-16T22:51:21.380Z,5.17
2023-02-16T22:53:48.282Z,4.50
2023-02-16T22:56:17.368Z,5.23
2023-02-16T22:58:44.488Z,7.53
2023-02-16T23:01:16.685Z,6.20
2023-02-16T23:03:46.869Z,5.87
2023-02-16T23:06:18.265Z,5.30
2023-02-16T23:08:45.973Z,5.20
2023-02-16T23:11:12.999Z,5.80
2023-02-16T23:13:39.493Z,5.70
2023-02-16T23:16:12.531Z,6.87
2023-02-16T23:18:39.894Z,8.20
2023-02-16T23:21:21.918Z,5.50
2023-02-16T23:23:49.961Z,6.73
2023-02-16T23:26:17.694Z,5.37
2023-02-16T23:28:44.521Z,3.93
2023-02-16T23:31:14.792Z,4.13
2023-02-16T23:33:41.307Z,5.80
2023-02-16T23:36:08.155Z,5.23
2023-02-16T23:38:34.555Z,6.30
2023-02-16T23:41:03.550Z,5.80
2023-02-16T23:43:30.569Z,4.77
2023-02-16T23:45:57.424Z,4.63
2023-02-16T23:48:24.309Z,5.30
2023-02-16T23:50:51.824Z,6.33
2023-02-16T23:53:19.750Z,5.30
2023-02-16T23:55:59.782Z,3.63
2023-02-16T23:58:30.976Z,6.47
